Time;durP1;ratioP1;P1;durP2;ratioP2;P2;SDS_P1;SDS_P2;PMS_P1;PMS_P2;Temp;Humidity;BMP_temperature;BMP_pressure;BME280_temperature;BME280_humidity;BME280_pressure;Samples;Min_cycle;Max_cycle;Signal;HPM_P1;HPM_P2
2023/03/11 00:00:36;;;;;;;1.17;1.07;;;;;;;2.27;99.86;99381.16;5041202;28;20245;-74
2023/03/11 00:03:03;;;;;;;1.53;1.43;;;;;;;2.30;100.00;99381.22;5041476;28;20189;-73
2023/03/11 00:05:38;;;;;;;2.23;1.60;;;;;;;2.36;99.96;99382.97;5044353;28;20193;-73
2023/03/11 00:08:05;;;;;;;2.00;1.50;;;;;;;2.38;100.00;99394.06;5038472;28;20218;-73
2023/03/11 00:10:33;;;;;;;2.43;1.50;;;;;;;2.42;100.00;99404.31;5041176;28;20237;-73
2023/03/11 00:12:59;;;;;;;2.17;1.40;;;;;;;2.49;100.00;99407.78;5045158;28;20221;-73
2023/03/11 00:15:26;;;;;;;1.70;1.37;;;;;;;2.58;100.00;99405.28;5044543;28;20245;-73
2023/03/11 00:17:51;;;;;;;2.10;1.60;;;;;;;2.64;100.00;99403.66;5059050;28;20249;-73
2023/03/11 00:20:18;;;;;;;3.57;1.60;;;;;;;2.68;100.00;99410.50;5046586;28;20210;-73
2023/03/11 00:22:44;;;;;;;1.70;1.23;;;;;;;2.69;100.00;99404.56;5044779;28;20191;-72
2023/03/11 00:25:11;;;;;;;1.60;1.47;;;;;;;2.70;100.00;99396.88;5042836;28;20182;-73
2023/03/11 00:27:36;;;;;;;1.80;1.50;;;;;;;2.68;100.00;99413.06;5044382;28;20178;-73
2023/03/11 00:30:02;;;;;;;1.20;1.10;;;;;;;2.63;100.00;99409.59;5045495;28;20233;-73
2023/03/11 00:32:28;;;;;;;2.13;1.23;;;;;;;2.57;100.00;99416.34;5038627;28;20741;-73
2023/03/11 00:34:53;;;;;;;1.50;1.30;;;;;;;2.52;100.00;99419.69;5059548;28;20252;-71
2023/03/11 00:37:18;;;;;;;1.87;1.30;;;;;;;2.43;100.00;99426.44;5041346;28;20218;-73
2023/03/11 00:39:44;;;;;;;1.90;1.30;;;;;;;2.38;100.00;99424.69;5039671;28;20736;-72
2023/03/11 00:42:09;;;;;;;2.77;1.40;;;;;;;2.32;100.00;99422.94;5042190;28;20206;-73
2023/03/11 00:44:35;;;;;;;2.43;1.43;;;;;;;2.26;100.00;99416.06;5044914;28;20201;-73
2023/03/11 00:47:00;;;;;;;1.90;1.40;;;;;;;2.21;100.00;99422.81;5038353;28;21035;-72
2023/03/11 00:49:25;;;;;;;2.33;1.30;;;;;;;2.19;100.00;99429.59;5060717;28;20211;-73
2023/03/11 00:51:51;;;;;;;1.80;1.10;;;;;;;2.13;100.00;99420.16;5054603;28;20215;-72
2023/03/11 00:54:16;;;;;;;1.50;1.40;;;;;;;2.09;100.00;99436.28;5037334;28;20652;-73
2023/03/11 00:56:42;;;;;;;1.40;1.30;;;;;;;2.07;100.00;99439.66;5044736;28;20242;-73
2023/03/11 00:59:07;;;;;;;1.67;1.20;;;;;;;2.06;100.00;99445.59;5045418;28;20224;-73
2023/03/11 01:01:32;;;;;;;2.83;1.40;;;;;;;2.05;100.00;99439.63;5044827;28;20225;-74
2023/03/11 01:03:58;;;;;;;2.10;1.50;;;;;;;2.03;100.00;99446.44;5041923;28;20194;-73
2023/03/11 01:06:23;;;;;;;1.30;1.13;;;;;;;2.04;100.00;99440.47;5040350;28;20643;-73
2023/03/11 01:08:49;;;;;;;2.10;1.30;;;;;;;2.07;100.00;99439.66;5038127;28;20211;-73
2023/03/11 01:11:14;;;;;;;1.83;1.27;;;;;;;2.06;100.00;99446.44;5042826;28;20183;-74
2023/03/11 01:13:39;;;;;;;2.67;1.00;;;;;;;2.08;100.00;99459.25;5042589;28;20201;-73
2023/03/11 01:16:06;;;;;;;2.03;1.33;;;;;;;2.10;100.00;99455.03;5057562;28;20199;-73
2023/03/11 01:18:32;;;;;;;2.03;1.40;;;;;;;2.11;100.00;99464.41;5044007;28;20790;-73
2023/03/11 01:20:58;;;;;;;2.10;1.03;;;;;;;2.15;100.00;99483.16;5042606;28;20302;-73
2023/03/11 01:23:23;;;;;;;2.73;1.33;;;;;;;2.16;100.00;99484.88;5037726;28;20727;-73
2023/03/11 01:25:49;;;;;;;1.83;1.33;;;;;;;2.15;100.00;99484.00;5057345;28;20647;-73
2023/03/11 01:28:15;;;;;;;1.27;1.17;;;;;;;2.11;99.81;99472.91;5042841;28;20639;-73
2023/03/11 01:30:41;;;;;;;2.60;1.30;;;;;;;2.05;100.00;99462.59;5042745;28;20211;-73
2023/03/11 01:33:12;;;;;;;2.40;1.13;;;;;;;1.96;100.00;99467.59;5038526;28;20182;-73
2023/03/11 01:35:38;;;;;;;2.67;1.20;;;;;;;1.87;100.00;99465.78;5043256;28;20215;-73
2023/03/11 01:38:04;;;;;;;1.97;1.30;;;;;;;1.82;100.00;99467.41;5041481;28;20225;-73
2023/03/11 01:40:37;;;;;;;1.77;1.10;;;;;;;1.75;100.00;99447.78;5043859;28;20246;-73
2023/03/11 01:43:04;;;;;;;1.73;1.30;;;;;;;1.68;100.00;99450.22;5039147;28;20191;-73
2023/03/11 01:45:38;;;;;;;2.10;1.13;;;;;;;1.64;100.00;99460.38;5038810;28;20236;-73
2023/03/11 01:48:03;;;;;;;2.23;1.10;;;;;;;1.58;100.00;99445.00;5039524;28;20209;-73
2023/03/11 01:50:35;;;;;;;1.47;1.03;;;;;;;1.52;100.00;99450.84;5042196;28;20683;-73
2023/03/11 01:53:02;;;;;;;1.37;1.03;;;;;;;1.46;100.00;99476.28;5038573;28;20196;-73
2023/03/11 01:55:28;;;;;;;2.07;1.10;;;;;;;1.43;100.00;99486.41;5037199;28;20852;-73
2023/03/11 01:57:54;;;;;;;1.67;1.10;;;;;;;1.37;100.00;99477.00;5039585;28;20213;-73
2023/03/11 02:00:19;;;;;;;1.83;1.00;;;;;;;1.32;100.00;99489.66;5042875;28;20230;-73
2023/03/11 02:02:50;;;;;;;1.00;0.90;;;;;;;1.27;100.00;99482.78;5040787;28;20218;-73
2023/03/11 02:05:15;;;;;;;1.50;1.00;;;;;;;1.23;100.00;99491.22;5034858;28;20191;-73
2023/03/11 02:07:41;;;;;;;1.50;0.83;;;;;;;1.18;100.00;99484.34;5043525;28;20194;-74
2023/03/11 02:10:08;;;;;;;2.27;1.40;;;;;;;1.16;100.00;99477.50;5037599;28;20215;-73
2023/03/11 02:12:35;;;;;;;1.57;1.00;;;;;;;1.14;100.00;99481.72;5057188;28;20661;-73
2023/03/11 02:15:01;;;;;;;2.03;1.30;;;;;;;1.10;100.00;99482.50;5034341;28;20208;-73
2023/03/11 02:17:27;;;;;;;1.60;1.20;;;;;;;1.08;100.00;99484.16;5038942;28;20280;-73
2023/03/11 02:20:01;;;;;;;1.70;1.20;;;;;;;1.03;100.00;99482.41;5057717;28;20686;-73
2023/03/11 02:22:30;;;;;;;1.37;1.20;;;;;;;1.01;100.00;99488.28;5043467;28;20197;-73
2023/03/11 02:25:03;;;;;;;1.53;1.00;;;;;;;0.95;100.00;99480.56;5043604;28;20193;-73
2023/03/11 02:27:32;;;;;;;1.70;1.10;;;;;;;0.88;100.00;99459.22;5036487;28;20233;-74
2023/03/11 02:29:59;;;;;;;1.80;1.10;;;;;;;0.82;100.00;99469.28;5048628;28;20246;-73
2023/03/11 02:32:25;;;;;;;0.87;0.87;;;;;;;0.76;100.00;99462.41;5041589;28;20296;-73
2023/03/11 02:34:50;;;;;;;1.30;0.90;;;;;;;0.73;100.00;99467.44;5040169;28;20191;-73
2023/03/11 02:37:17;;;;;;;1.97;1.17;;;;;;;0.71;100.00;99453.81;5040807;28;20378;-71
2023/03/11 02:39:45;;;;;;;1.07;0.97;;;;;;;0.69;100.00;99448.72;5041249;28;20280;-73
2023/03/11 02:42:16;;;;;;;1.40;1.20;;;;;;;0.68;100.00;99448.69;5041111;28;20785;-73
2023/03/11 02:44:45;;;;;;;0.80;0.80;;;;;;;0.64;100.00;99457.94;5036199;28;20231;-73
2023/03/11 02:47:10;;;;;;;1.23;1.13;;;;;;;0.62;100.00;99471.50;5052111;28;20218;-73
2023/03/11 02:49:36;;;;;;;1.73;1.10;;;;;;;0.58;100.00;99468.03;5036572;28;20685;-73
2023/03/11 02:52:02;;;;;;;2.10;1.07;;;;;;;0.56;100.00;99480.72;5036880;28;20190;-73
2023/03/11 02:54:27;;;;;;;1.80;0.90;;;;;;;0.54;100.00;99477.28;5039403;28;20198;-73
2023/03/11 02:56:53;;;;;;;1.37;1.17;;;;;;;0.53;100.00;99479.81;5056640;28;20215;-73
2023/03/11 02:59:18;;;;;;;2.23;1.23;;;;;;;0.51;100.00;99477.25;5036611;28;20212;-73
2023/03/11 03:01:44;;;;;;;1.37;1.27;;;;;;;0.49;100.00;99475.50;5042763;28;20178;-73
2023/03/11 03:04:09;;;;;;;2.87;1.30;;;;;;;0.44;100.00;99468.66;5037620;28;20191;-73
2023/03/11 03:06:34;;;;;;;1.27;1.00;;;;;;;0.41;100.00;99466.03;5059953;28;20191;-73
2023/03/11 03:09:00;;;;;;;2.23;1.23;;;;;;;0.39;100.00;99472.78;5042512;28;20202;-73
2023/03/11 03:11:25;;;;;;;2.23;1.10;;;;;;;0.35;100.00;99463.38;5060206;28;20236;-73
2023/03/11 03:13:50;;;;;;;1.80;1.30;;;;;;;0.34;100.00;99455.72;5040228;28;20191;-73
2023/03/11 03:16:16;;;;;;;2.03;1.23;;;;;;;0.28;100.00;99452.22;5039346;28;20238;-72
2023/03/11 03:18:42;;;;;;;1.60;1.00;;;;;;;0.25;100.00;99451.31;5050620;28;20187;-75
2023/03/11 03:21:07;;;;;;;1.90;1.10;;;;;;;0.19;100.00;99454.59;5063982;28;20175;-73
2023/03/11 03:23:34;;;;;;;1.47;1.10;;;;;;;0.14;100.00;99456.19;5052968;28;20191;-73
2023/03/11 03:26:00;;;;;;;3.13;1.10;;;;;;;0.08;100.00;99472.19;5052914;28;20189;-73
2023/03/11 03:28:26;;;;;;;1.73;1.37;;;;;;;0.03;100.00;99481.38;5062442;28;20187;-73
2023/03/11 03:30:51;;;;;;;1.60;1.10;;;;;;;-0.01;100.00;99484.72;5050433;28;20673;-73
2023/03/11 03:33:17;;;;;;;2.27;1.30;;;;;;;-0.07;100.00;99492.22;5042593;28;20225;-73
2023/03/11 03:35:44;;;;;;;1.50;1.20;;;;;;;-0.11;100.00;99498.94;5040508;28;20518;-73
2023/03/11 03:38:09;;;;;;;2.00;1.20;;;;;;;-0.12;100.00;99506.50;5045220;28;20222;-73
2023/03/11 03:40:35;;;;;;;2.83;1.33;;;;;;;-0.18;100.00;99507.22;5043314;28;20206;-73
2023/03/11 03:43:00;;;;;;;3.63;1.17;;;;;;;-0.22;100.00;99507.97;5045058;28;20221;-73
2023/03/11 03:45:26;;;;;;;1.93;1.07;;;;;;;-0.25;100.00;99510.47;5044463;28;20219;-73
2023/03/11 03:47:51;;;;;;;1.30;1.10;;;;;;;-0.30;100.00;99517.97;5038125;28;20294;-73
2023/03/11 03:50:17;;;;;;;2.70;1.30;;;;;;;-0.33;100.00;99523.03;5043603;28;20208;-72
2023/03/11 03:52:42;;;;;;;2.47;1.10;;;;;;;-0.37;100.00;99514.44;5062941;28;20243;-72
2023/03/11 03:55:08;;;;;;;1.53;1.20;;;;;;;-0.37;100.00;99521.22;5045837;28;20206;-73
2023/03/11 03:57:33;;;;;;;2.53;1.00;;;;;;;-0.39;100.00;99516.13;5045389;28;20576;-73
2023/03/11 03:59:58;;;;;;;2.00;1.10;;;;;;;-0.42;100.00;99518.59;5046641;28;20218;-74
2023/03/11 04:02:24;;;;;;;1.80;1.10;;;;;;;-0.48;100.00;99513.34;5047969;28;20307;-73
2023/03/11 04:04:50;;;;;;;1.83;1.00;;;;;;;-0.53;100.00;99513.25;5041355;28;20617;-73
2023/03/11 04:07:17;;;;;;;1.87;1.20;;;;;;;-0.57;100.00;99521.59;5043394;28;20233;-72
2023/03/11 04:09:43;;;;;;;2.17;1.03;;;;;;;-0.61;100.00;99519.84;5045059;28;20297;-72
2023/03/11 04:12:16;;;;;;;2.73;1.20;;;;;;;-0.65;100.00;99529.03;5041789;28;20194;-73
2023/03/11 04:14:42;;;;;;;1.13;0.93;;;;;;;-0.69;100.00;99518.78;5044603;28;20190;-73
2023/03/11 04:17:10;;;;;;;2.30;1.00;;;;;;;-0.73;100.00;99522.06;5043180;28;20338;-72
2023/03/11 04:19:35;;;;;;;1.33;1.07;;;;;;;-0.76;100.00;99525.41;5041307;28;20710;-73
2023/03/11 04:22:01;;;;;;;1.63;0.80;;;;;;;-0.78;100.00;99532.13;5041647;28;20189;-73
2023/03/11 04:24:26;;;;;;;2.67;1.20;;;;;;;-0.80;100.00;99521.06;5043984;28;20697;-73
2023/03/11 04:26:51;;;;;;;1.20;1.10;;;;;;;-0.82;100.00;99515.94;5044553;28;21002;-73
2023/03/11 04:29:17;;;;;;;2.63;1.10;;;;;;;-0.85;100.00;99513.31;5046075;28;20204;-73
2023/03/11 04:31:42;;;;;;;4.07;1.20;;;;;;;-0.86;100.00;99518.38;5044851;28;20567;-73
2023/03/11 04:34:07;;;;;;;2.03;1.00;;;;;;;-0.87;100.00;99521.75;5040563;28;20188;-73
2023/03/11 04:36:33;;;;;;;1.97;1.10;;;;;;;-0.90;100.00;99521.66;5043925;28;20353;-73
2023/03/11 04:38:58;;;;;;;3.10;1.30;;;;;;;-0.93;100.00;99518.22;5043620;28;20245;-73
2023/03/11 04:41:24;;;;;;;3.03;1.40;;;;;;;-0.89;100.00;99521.69;5042342;28;20196;-73
2023/03/11 04:43:49;;;;;;;3.80;1.47;;;;;;;-0.87;100.00;99521.75;5046346;28;20179;-73
2023/03/11 04:46:14;;;;;;;2.13;1.20;;;;;;;-0.87;100.00;99524.28;5042547;28;20655;-73
2023/03/11 04:48:40;;;;;;;3.83;1.17;;;;;;;-0.89;100.00;99523.38;5039470;28;20555;-73
2023/03/11 04:51:06;;;;;;;2.40;1.40;;;;;;;-0.93;100.00;99530.91;5044201;28;20201;-73
2023/03/11 04:53:31;;;;;;;3.83;1.70;;;;;;;-0.95;100.00;99526.63;5048952;28;20604;-73
2023/03/11 04:55:57;;;;;;;2.80;1.50;;;;;;;-0.96;100.00;99535.06;5046302;28;20216;-73
2023/03/11 04:58:22;;;;;;;2.37;1.40;;;;;;;-0.97;100.00;99534.19;5045376;28;20234;-73
2023/03/11 05:00:48;;;;;;;2.10;1.70;;;;;;;-0.96;100.00;99533.38;5038628;28;20805;-73
2023/03/11 05:03:13;;;;;;;3.07;1.43;;;;;;;-0.95;100.00;99534.25;5044799;28;20248;-73
2023/03/11 05:05:38;;;;;;;2.20;1.37;;;;;;;-0.96;100.00;99538.44;5044564;28;20207;-72
2023/03/11 05:08:04;;;;;;;1.57;1.47;;;;;;;-0.95;100.00;99540.16;5040850;28;20191;-73
2023/03/11 05:10:29;;;;;;;2.43;1.53;;;;;;;-0.93;100.00;99546.16;5045262;28;20230;-73
2023/03/11 05:12:54;;;;;;;2.30;1.50;;;;;;;-0.94;100.00;99541.88;5038804;28;21291;-75
2023/03/11 05:15:20;;;;;;;2.87;1.73;;;;;;;-0.91;100.00;99558.91;5041219;28;20225;-74
2023/03/11 05:17:45;;;;;;;2.00;1.53;;;;;;;-0.89;100.00;99551.31;5043536;28;20192;-74
2023/03/11 05:20:11;;;;;;;2.37;1.30;;;;;;;-0.90;100.00;99555.53;5042984;28;20212;-74
2023/03/11 05:22:37;;;;;;;1.70;1.30;;;;;;;-0.88;100.00;99558.13;5045378;28;20291;-74
2023/03/11 05:25:03;;;;;;;4.10;1.70;;;;;;;-0.89;100.00;99557.25;5047278;28;20199;-74
2023/03/11 05:27:29;;;;;;;3.97;1.73;;;;;;;-0.89;100.00;99556.41;5041217;28;20916;-74
2023/03/11 05:29:54;;;;;;;2.50;1.50;;;;;;;-0.93;100.00;99553.78;5040258;28;20204;-74
2023/03/11 05:32:20;;;;;;;1.70;1.40;;;;;;;-0.98;100.00;99557.03;5040297;28;20198;-75
2023/03/11 05:34:45;;;;;;;2.63;1.87;;;;;;;-1.01;100.00;99560.34;5047516;28;20574;-74
2023/03/11 05:37:11;;;;;;;4.53;1.93;;;;;;;-1.04;100.00;99560.25;5041370;28;20204;-74
2023/03/11 05:39:36;;;;;;;3.63;1.40;;;;;;;-1.09;100.00;99562.69;5045318;28;20686;-74
2023/03/11 05:42:03;;;;;;;2.07;1.80;;;;;;;-1.13;100.00;99555.78;5045129;28;20193;-74
2023/03/11 05:44:29;;;;;;;2.70;1.50;;;;;;;-1.15;100.00;99565.06;5059657;28;20689;-75
2023/03/11 05:46:54;;;;;;;2.17;1.77;;;;;;;-1.18;100.00;99571.72;5047403;28;20184;-74
2023/03/11 05:49:20;;;;;;;2.70;1.80;;;;;;;-1.22;100.00;99570.81;5042301;28;20579;-74
2023/03/11 05:51:46;;;;;;;2.13;1.63;;;;;;;-1.23;100.00;99569.06;5042923;28;20207;-74
2023/03/11 05:54:13;;;;;;;2.37;1.50;;;;;;;-1.24;100.00;99567.34;5040349;28;20334;-74
2023/03/11 05:56:40;;;;;;;3.53;1.80;;;;;;;-1.23;100.00;99575.00;5043833;28;20761;-74
2023/03/11 05:59:06;;;;;;;2.53;1.57;;;;;;;-1.21;100.00;99569.09;5042969;28;20242;-74
2023/03/11 06:01:32;;;;;;;2.00;1.80;;;;;;;-1.19;100.00;99570.84;5042811;28;20688;-74
2023/03/11 06:03:57;;;;;;;2.07;1.47;;;;;;;-1.15;100.00;99569.28;5048929;28;20215;-73
2023/03/11 06:06:22;;;;;;;2.47;1.80;;;;;;;-1.11;100.00;99571.06;5041325;28;20303;-74
2023/03/11 06:08:49;;;;;;;2.07;1.60;;;;;;;-1.08;100.00;99561.88;5043472;28;20652;-75
2023/03/11 06:11:15;;;;;;;4.27;1.77;;;;;;;-1.01;100.00;99559.47;5045329;28;20194;-74
2023/03/11 06:13:40;;;;;;;2.80;1.70;;;;;;;-0.90;100.00;99565.69;5044878;28;20193;-74
2023/03/11 06:16:06;;;;;;;2.73;1.70;;;;;;;-0.69;100.00;99569.59;5044162;28;20257;-74
2023/03/11 06:18:32;;;;;;;2.83;1.63;;;;;;;-0.47;100.00;99576.06;5043285;28;20184;-73
2023/03/11 06:20:59;;;;;;;3.60;1.60;;;;;;;-0.32;100.00;99583.22;5059421;28;20194;-71
2023/03/11 06:23:25;;;;;;;2.17;1.47;;;;;;;-0.18;100.00;99584.41;5055991;28;20192;-71
2023/03/11 06:26:01;;;;;;;3.47;1.57;;;;;;;-0.03;100.00;99594.06;5043967;28;20180;-72
2023/03/11 06:28:31;;;;;;;2.67;1.53;;;;;;;0.21;100.00;99600.53;5046508;28;20218;-71
2023/03/11 06:31:06;;;;;;;1.90;1.33;;;;;;;0.48;100.00;99596.84;5040599;28;20197;-72
2023/03/11 06:33:32;;;;;;;3.20;1.53;;;;;;;0.68;100.00;99598.94;5044337;28;20187;-72
2023/03/11 06:35:58;;;;;;;3.17;1.53;;;;;;;0.85;100.00;99606.91;5041955;28;20233;-72
2023/03/11 06:38:25;;;;;;;3.27;1.50;;;;;;;1.02;100.00;99608.09;5043259;28;20197;-71
2023/03/11 06:40:50;;;;;;;3.90;1.87;;;;;;;1.18;100.00;99605.84;5058368;28;20179;-72
2023/03/11 06:43:16;;;;;;;3.40;1.60;;;;;;;1.25;100.00;99612.75;5046091;28;20196;-72
2023/03/11 06:45:42;;;;;;;2.60;1.30;;;;;;;1.21;100.00;99609.28;5040155;28;20222;-72
2023/03/11 06:48:07;;;;;;;3.03;1.23;;;;;;;1.16;100.00;99620.25;5034143;28;20191;-72
2023/03/11 06:50:33;;;;;;;2.27;1.23;;;;;;;1.15;100.00;99621.91;5040120;28;22190;-72
2023/03/11 06:53:00;;;;;;;3.07;1.40;;;;;;;1.21;100.00;99633.94;5034255;28;20191;-72
2023/03/11 06:55:26;;;;;;;3.57;1.67;;;;;;;1.26;100.00;99632.31;5036186;28;20214;-72
2023/03/11 06:57:51;;;;;;;2.07;1.20;;;;;;;1.36;100.00;99630.78;5059089;28;20578;-71
2023/03/11 07:00:17;;;;;;;3.80;1.50;;;;;;;1.47;100.00;99631.00;5040760;28;20695;-72
2023/03/11 07:02:43;;;;;;;1.47;1.33;;;;;;;1.54;100.00;99631.94;5044814;28;20202;-73
2023/03/11 07:05:09;;;;;;;1.47;1.10;;;;;;;1.58;100.00;99642.22;5050479;28;20190;-71
2023/03/11 07:07:34;;;;;;;4.33;1.70;;;;;;;1.64;100.00;99644.88;5040780;28;20280;-72
2023/03/11 07:10:00;;;;;;;2.97;1.30;;;;;;;1.75;100.00;99642.50;5045293;28;20202;-71
2023/03/11 07:12:26;;;;;;;2.57;1.53;;;;;;;1.78;100.00;99654.47;5040919;28;20195;-71
2023/03/11 07:14:58;;;;;;;2.50;1.47;;;;;;;1.81;100.00;99657.91;5044953;28;20238;-72
2023/03/11 07:17:25;;;;;;;1.50;1.40;;;;;;;1.83;100.00;99663.91;5047303;28;20194;-73
2023/03/11 07:19:51;;;;;;;1.87;1.50;;;;;;;1.83;100.00;99663.91;5060476;28;20210;-71
2023/03/11 07:22:17;;;;;;;3.10;1.53;;;;;;;1.86;100.00;99663.09;5057240;28;20186;-72
2023/03/11 07:24:47;;;;;;;3.40;1.93;;;;;;;1.90;100.00;99662.31;5038152;28;20209;-71
2023/03/11 07:27:13;;;;;;;2.27;1.70;;;;;;;1.95;100.00;99662.38;5041506;28;20182;-71
2023/03/11 07:29:39;;;;;;;4.13;1.73;;;;;;;2.04;100.00;99669.31;5059700;28;20226;-72
2023/03/11 07:32:07;;;;;;;3.67;1.97;;;;;;;2.10;100.00;99674.53;5036659;28;20187;-72
2023/03/11 07:34:33;;;;;;;3.20;1.60;;;;;;;2.15;100.00;99674.59;5040756;28;20199;-72
2023/03/11 07:36:59;;;;;;;3.40;1.50;;;;;;;2.20;100.00;99675.50;5044028;28;20308;-71
2023/03/11 07:39:25;;;;;;;3.27;1.83;;;;;;;2.26;100.00;99683.28;5043884;28;20348;-72
2023/03/11 07:41:51;;;;;;;3.80;2.37;;;;;;;2.33;100.00;99689.34;5041177;28;20194;-72
2023/03/11 07:44:17;;;;;;;4.33;2.30;;;;;;;2.39;99.81;99692.84;5037744;28;20191;-71
2023/03/11 07:46:45;;;;;;;4.00;2.27;;;;;;;2.44;99.76;99682.69;5039456;28;20189;-71
2023/03/11 07:49:11;;;;;;;2.90;2.17;;;;;;;2.48;99.52;99688.72;5041199;28;20218;-71
2023/03/11 07:51:39;;;;;;;3.30;2.10;;;;;;;2.51;99.52;99704.06;5043362;28;20183;-70
2023/03/11 07:54:06;;;;;;;3.77;2.00;;;;;;;2.52;99.40;99705.78;5054568;28;20213;-72
2023/03/11 07:56:34;;;;;;;6.37;2.33;;;;;;;2.53;99.38;99710.94;5059385;28;20222;-71
2023/03/11 07:59:01;;;;;;;5.63;2.70;;;;;;;2.55;99.25;99711.81;5062122;28;20218;-73
2023/03/11 08:01:34;;;;;;;8.33;3.50;;;;;;;2.62;98.71;99711.88;5047282;28;20193;-72
2023/03/11 08:04:04;;;;;;;4.83;2.00;;;;;;;2.68;98.13;99710.28;5060561;28;20338;-72
2023/03/11 08:06:32;;;;;;;3.70;2.03;;;;;;;2.77;97.71;99716.38;5045429;28;20269;-71
2023/03/11 08:08:59;;;;;;;3.50;1.97;;;;;;;2.90;97.46;99713.97;5044700;28;20217;-72
2023/03/11 08:11:26;;;;;;;2.30;1.50;;;;;;;3.06;97.04;99726.94;5060319;28;20797;-73
2023/03/11 08:13:52;;;;;;;2.10;1.60;;;;;;;3.24;96.43;99718.66;5040279;28;20187;-73
2023/03/11 08:16:20;;;;;;;1.97;1.20;;;;;;;3.49;95.85;99718.94;5037566;28;20211;-72
2023/03/11 08:18:48;;;;;;;6.97;4.97;;;;;;;3.74;93.78;99717.47;5062017;28;20202;-72
2023/03/11 08:21:18;;;;;;;7.73;4.67;;;;;;;4.00;92.55;99718.56;5059408;28;21089;-72
2023/03/11 08:23:47;;;;;;;3.73;2.93;;;;;;;4.21;91.54;99720.44;5048836;28;20587;-72
2023/03/11 08:26:16;;;;;;;5.00;2.03;;;;;;;4.17;86.52;99714.41;5047706;28;20183;-72
2023/03/11 08:28:42;;;;;;;5.83;1.80;;;;;;;4.12;86.21;99706.72;5054671;28;20234;-72
2023/03/11 08:31:20;;;;;;;3.10;1.27;;;;;;;4.12;86.26;99713.53;5044657;28;20191;-72
2023/03/11 08:33:48;;;;;;;3.73;2.30;;;;;;;4.16;86.59;99706.75;5055144;28;20565;-71
2023/03/11 08:36:14;;;;;;;2.67;1.70;;;;;;;4.18;86.53;99705.91;5047090;28;20242;-72
2023/03/11 08:38:40;;;;;;;3.27;2.00;;;;;;;4.08;86.30;99711.81;5053652;28;20187;-72
2023/03/11 08:41:06;;;;;;;2.40;1.43;;;;;;;3.92;85.75;99718.50;5058424;28;20187;-71
2023/03/11 08:43:32;;;;;;;3.30;1.87;;;;;;;3.81;85.39;99716.69;5046890;28;20214;-72
2023/03/11 08:46:02;;;;;;;2.30;1.47;;;;;;;3.82;85.51;99722.69;5044070;28;20221;-72
2023/03/11 08:48:28;;;;;;;4.10;1.57;;;;;;;3.87;84.69;99735.50;5046195;28;20197;-72
2023/03/11 08:50:54;;;;;;;3.43;1.47;;;;;;;3.89;84.43;99732.09;5048185;28;20202;-72
2023/03/11 08:53:20;;;;;;;2.40;1.27;;;;;;;3.93;84.27;99731.31;5060363;28;20191;-72
2023/03/11 08:55:46;;;;;;;4.97;2.30;;;;;;;4.04;84.30;99738.22;5038585;28;20718;-72
2023/03/11 08:58:12;;;;;;;4.67;3.87;;;;;;;4.17;84.43;99734.06;5058315;28;20197;-71
2023/03/11 09:00:37;;;;;;;4.73;2.63;;;;;;;4.32;84.19;99743.56;5043742;28;20214;-71
2023/03/11 09:03:03;;;;;;;3.10;2.00;;;;;;;4.41;83.14;99741.09;5046078;28;20201;-72
2023/03/11 09:05:28;;;;;;;5.03;2.10;;;;;;;4.43;81.88;99747.09;5063406;28;20187;-72
2023/03/11 09:07:54;;;;;;;3.40;1.60;;;;;;;4.50;81.10;99740.28;5045149;28;20223;-72
2023/03/11 09:10:20;;;;;;;3.57;1.40;;;;;;;4.58;80.44;99746.31;5039061;28;20588;-72
2023/03/11 09:12:46;;;;;;;2.40;1.23;;;;;;;4.62;79.87;99747.19;5042734;28;20198;-73
2023/03/11 09:15:11;;;;;;;3.40;1.50;;;;;;;4.69;79.80;99744.69;5042543;28;20214;-73
2023/03/11 09:17:40;;;;;;;1.70;1.10;;;;;;;4.81;79.05;99748.19;5040358;28;20930;-72
2023/03/11 09:20:06;;;;;;;3.60;1.27;;;;;;;4.87;78.99;99743.06;5041785;28;20217;-72
2023/03/11 09:22:32;;;;;;;4.17;1.30;;;;;;;4.99;79.16;99745.69;5047491;28;20653;-72
2023/03/11 09:24:57;;;;;;;3.07;1.40;;;;;;;5.14;79.41;99742.38;5065730;28;20203;-72
2023/03/11 09:27:23;;;;;;;1.83;1.30;;;;;;;5.31;79.29;99733.88;5048058;28;20668;-72
2023/03/11 09:29:51;;;;;;;1.60;1.13;;;;;;;5.30;78.72;99740.72;5043413;28;20206;-73
2023/03/11 09:32:17;;;;;;;4.37;1.50;;;;;;;5.22;78.07;99739.84;5039693;28;20700;-73
2023/03/11 09:34:42;;;;;;;3.33;1.50;;;;;;;5.13;76.99;99730.38;5040175;28;20200;-73
2023/03/11 09:37:07;;;;;;;2.10;1.37;;;;;;;5.20;77.35;99736.41;5041117;28;20308;-74
2023/03/11 09:39:33;;;;;;;3.03;1.50;;;;;;;5.33;77.14;99738.16;5054111;28;20273;-73
2023/03/11 09:42:14;;;;;;;2.30;1.10;;;;;;;5.52;77.25;99734.81;5036807;28;20719;-73
2023/03/11 09:44:44;;;;;;;2.17;1.23;;;;;;;5.72;76.84;99735.69;5040821;28;20192;-73
2023/03/11 09:47:22;;;;;;;2.73;1.07;;;;;;;5.90;75.84;99737.44;5054592;28;20176;-73
2023/03/11 09:50:24;;;;;;;1.97;1.03;;;;;;;6.08;74.57;99738.34;5039977;28;20264;-73
2023/03/11 09:53:01;;;;;;;3.43;1.20;;;;;;;6.31;74.28;99738.34;5038389;28;20194;-74
2023/03/11 09:55:43;;;;;;;2.53;1.20;;;;;;;6.56;73.66;99735.78;5041378;28;20218;-74
2023/03/11 09:58:12;;;;;;;3.17;1.27;;;;;;;6.86;73.88;99731.41;5041107;28;20199;-74
2023/03/11 10:00:39;;;;;;;2.97;1.33;;;;;;;7.12;73.08;99731.31;5038668;28;20212;-73
2023/03/11 10:03:16;;;;;;;2.87;1.30;;;;;;;7.40;72.03;99730.34;5038462;28;20192;-74
2023/03/11 10:05:44;;;;;;;3.53;1.20;;;;;;;7.67;71.56;99733.63;5038089;28;20193;-73
2023/03/11 10:08:25;;;;;;;1.93;1.07;;;;;;;7.81;70.89;99728.41;5040405;28;20193;-73
2023/03/11 10:11:01;;;;;;;3.07;1.10;;;;;;;7.96;69.38;99727.44;5040810;28;20217;-73
2023/03/11 10:13:38;;;;;;;3.20;1.33;;;;;;;8.10;68.67;99728.19;5036269;28;20694;-74
2023/03/11 10:16:25;;;;;;;2.43;1.47;;;;;;;8.16;67.91;99727.31;5038913;28;20213;-72
2023/03/11 10:19:14;;;;;;;2.70;1.10;;;;;;;8.25;66.97;99737.53;5036444;28;20206;-73
2023/03/11 10:21:49;;;;;;;2.80;1.00;;;;;;;8.37;67.39;99728.84;5041625;28;20187;-72
2023/03/11 10:24:40;;;;;;;2.33;1.13;;;;;;;8.43;65.72;99728.75;5038976;28;20268;-73
2023/03/11 10:27:14;;;;;;;2.43;0.90;;;;;;;8.31;65.08;99724.59;5022974;28;20195;-73
2023/03/11 10:29:44;;;;;;;1.83;0.80;;;;;;;8.31;65.52;99718.56;5036399;28;20210;-73
2023/03/11 10:32:28;;;;;;;1.50;0.90;;;;;;;8.30;65.62;99722.00;5036325;28;20256;-73
2023/03/11 10:35:03;;;;;;;3.30;1.10;;;;;;;8.34;64.91;99710.81;5040104;28;20190;-73
2023/03/11 10:37:39;;;;;;;1.97;1.00;;;;;;;8.29;65.07;99716.00;5039704;28;20213;-73
2023/03/11 10:40:30;;;;;;;1.77;1.00;;;;;;;8.34;64.95;99718.53;5036972;28;20298;-73
2023/03/11 10:43:00;;;;;;;2.10;0.90;;;;;;;8.46;64.80;99723.59;5037204;28;20278;-73
2023/03/11 10:45:32;;;;;;;2.40;1.00;;;;;;;8.67;64.90;99719.97;5035496;28;20235;-73
2023/03/11 10:47:57;;;;;;;1.80;0.93;;;;;;;8.91;64.07;99728.34;5033868;28;20199;-74
2023/03/11 10:50:22;;;;;;;2.53;1.00;;;;;;;9.03;63.56;99727.31;5038668;28;20238;-74
2023/03/11 10:53:08;;;;;;;1.47;0.97;;;;;;;9.01;63.91;99729.06;5038978;28;20196;-73
2023/03/11 10:55:44;;;;;;;2.43;1.07;;;;;;;9.03;64.31;99736.81;5037761;28;20249;-73
2023/03/11 10:58:14;;;;;;;1.77;0.80;;;;;;;9.19;64.13;99730.59;5053599;28;20205;-73
2023/03/11 11:00:40;;;;;;;1.83;0.90;;;;;;;9.31;64.25;99732.13;5035443;28;20242;-73
2023/03/11 11:03:16;;;;;;;2.60;1.10;;;;;;;9.48;63.40;99737.09;5037770;28;20209;-73
2023/03/11 11:05:41;;;;;;;3.60;1.20;;;;;;;9.54;63.44;99726.66;5037552;28;20189;-73
2023/03/11 11:08:13;;;;;;;3.77;1.10;;;;;;;9.62;61.65;99731.72;5035358;28;20187;-73
2023/03/11 11:10:50;;;;;;;2.07;0.90;;;;;;;9.51;61.48;99729.31;5039640;28;20210;-73
2023/03/11 11:13:21;;;;;;;1.47;0.90;;;;;;;9.41;60.85;99720.84;5039934;28;20200;-73
2023/03/11 11:16:01;;;;;;;2.33;0.90;;;;;;;9.41;61.77;99726.00;5039100;28;20296;-72
2023/03/11 11:18:43;;;;;;;1.77;0.70;;;;;;;9.46;61.47;99724.19;5037355;28;20186;-73
2023/03/11 11:21:31;;;;;;;1.53;0.90;;;;;;;9.49;60.81;99728.47;5038221;28;20240;-73
2023/03/11 11:24:19;;;;;;;2.10;1.10;;;;;;;9.42;60.20;99719.09;5034517;28;20209;-73
2023/03/11 11:27:20;;;;;;;1.03;0.80;;;;;;;9.37;59.89;99726.06;5041402;28;20211;-72
2023/03/11 11:29:47;;;;;;;1.80;0.77;;;;;;;9.33;59.98;99722.66;5036300;28;20230;-72
2023/03/11 11:32:12;;;;;;;0.90;0.80;;;;;;;9.32;59.56;99720.09;5037993;28;20541;-74
2023/03/11 11:34:38;;;;;;;2.13;0.87;;;;;;;9.28;59.40;99716.72;5035676;28;20198;-73
2023/03/11 11:37:05;;;;;;;1.30;0.80;;;;;;;9.25;58.85;99721.91;5040544;28;20303;-73